Skip Navigation Links Skip Navigation Links

Current Weather

Pella Muni, Pella, Iowa

For information only: do not use for flight planning or navigation.
Latest weather
Observation time Tuesday, October 19, 2021 2:55 AM CDT
Local time Tuesday, October 19, 2021 3:07 AM CDT
Flight conditions Visual Meteorological Conditions
Winds
Wind direction South-Southeast (160°)
Wind speed 6 mph
Visibility 10 mi.
Sky condition
Ceiling unlimited
Temperature 53°F
Dewpoint 46°F
Altimeter 30.04 in.Hg
Derived measurements
Relative humidity 75%
Density altitude 505 ft.
Remarks
Fully automated report.
Automated weather observing station with precipitation discriminator.
METAR KPEA 190755Z AUTO 16005KT 10SM 12/08 A3004 RMK AO2 T01170075

Settings

Location code

InnerDrive.Weather 4.0.6770.0 Release CLR 4.0.30319.42000
Copyright ©2018 Inner Drive Technology. All rights reserved. Portions Copyright ©1986-2018 David Braverman.

Find weather

Site navigation


Skip Navigation Links

Place info

Page info

PayPal - The safer, easier way to pay online!

Return home.

Copyright ©2021 Inner Drive Technology. Purveyors of fine, hand-crafted computer software. Page printed 2021-10-19T08:07:35 UTC.